Time;durP1;ratioP1;P1;durP2;ratioP2;P2;SDS_P1;SDS_P2;PMS_P1;PMS_P2;Temp;Humidity;BMP_temperature;BMP_pressure;BME280_temperature;BME280_humidity;BME280_pressure;Samples;Min_cycle;Max_cycle;Signal;HPM_P1;HPM_P2
2023/09/12 00:00:55;;;;;;;12.60;10.40;;;;;;;20.94;100.00;100339.47;6331704;28;20052;-86
2023/09/12 00:03:56;;;;;;;15.60;11.73;;;;;;;21.00;100.00;100374.72;6323823;28;20079;-86
2023/09/12 00:06:58;;;;;;;13.07;11.20;;;;;;;21.12;100.00;100394.25;6323824;28;20391;-86
2023/09/12 00:10:00;;;;;;;16.23;12.23;;;;;;;21.03;100.00;100374.34;6324961;28;20035;-86
2023/09/12 00:13:02;;;;;;;18.75;12.88;;;;;;;21.06;100.00;100358.97;6324545;28;20479;-86
2023/09/12 00:16:05;;;;;;;16.42;12.30;;;;;;;21.08;100.00;100341.16;6327921;28;20477;-86
2023/09/12 00:19:07;;;;;;;16.23;12.82;;;;;;;21.09;100.00;100331.44;6325368;28;20044;-86
2023/09/12 00:22:09;;;;;;;15.70;12.23;;;;;;;21.11;100.00;100334.69;6329890;28;20063;-86
2023/09/12 00:25:11;;;;;;;15.85;12.88;;;;;;;20.97;100.00;100335.66;6327686;28;20039;-86
2023/09/12 00:28:12;;;;;;;16.35;14.02;;;;;;;20.97;100.00;100315.41;6325790;28;20071;-86
2023/09/12 00:31:14;;;;;;;19.10;13.30;;;;;;;20.98;100.00;100313.59;6326109;28;20073;-86
2023/09/12 00:34:17;;;;;;;17.27;12.82;;;;;;;20.88;100.00;100310.50;6312716;28;20048;-86
2023/09/12 00:37:19;;;;;;;18.77;13.30;;;;;;;20.86;100.00;100303.59;6321399;28;20036;-86
2023/09/12 00:40:21;;;;;;;19.38;14.63;;;;;;;20.82;100.00;100304.19;6328352;28;20088;-86
2023/09/12 00:43:23;;;;;;;17.67;13.63;;;;;;;20.72;100.00;100307.16;6330986;28;20065;-86
2023/09/12 00:46:27;;;;;;;21.83;14.38;;;;;;;20.67;100.00;100288.53;6331547;28;20482;-86
2023/09/12 00:49:31;;;;;;;19.45;15.05;;;;;;;20.61;100.00;100291.91;6324748;28;20040;-87
2023/09/12 00:52:36;;;;;;;18.20;14.00;;;;;;;20.55;100.00;100292.69;6327952;28;20036;-86
2023/09/12 00:55:43;;;;;;;19.33;13.98;;;;;;;20.44;100.00;100286.09;6321682;28;20047;-86
2023/09/12 00:58:45;;;;;;;23.15;15.05;;;;;;;20.37;100.00;100282.59;6329638;28;20036;-86
2023/09/12 01:01:48;;;;;;;16.50;13.32;;;;;;;20.32;100.00;100291.09;6325532;28;20054;-86
2023/09/12 01:04:51;;;;;;;16.23;13.23;;;;;;;20.28;100.00;100287.22;6329750;28;20112;-86
2023/09/12 01:07:53;;;;;;;19.77;13.50;;;;;;;20.25;100.00;100279.72;6328533;28;20035;-86
2023/09/12 01:10:56;;;;;;;18.45;13.32;;;;;;;20.17;100.00;100285.91;6330288;28;20386;-86
2023/09/12 01:13:58;;;;;;;15.95;13.07;;;;;;;20.07;100.00;100290.66;6318495;28;20052;-86
2023/09/12 01:17:02;;;;;;;24.42;12.98;;;;;;;19.97;100.00;100285.75;6317131;28;20075;-86
2023/09/12 01:20:08;;;;;;;17.38;13.30;;;;;;;19.92;100.00;100280.22;6330388;28;20144;-86
2023/09/12 01:23:28;;;;;;;17.38;13.13;;;;;;;19.86;100.00;100295.94;6333090;28;20047;-86
2023/09/12 01:26:49;;;;;;;17.25;12.80;;;;;;;19.72;100.00;100292.34;6331738;28;20055;-86
2023/09/12 01:29:56;;;;;;;19.48;12.75;;;;;;;19.66;100.00;100298.34;6332587;28;20071;-86
2023/09/12 01:32:59;;;;;;;20.60;13.93;;;;;;;19.62;100.00;100291.81;6326915;28;20044;-86
2023/09/12 01:36:01;;;;;;;17.00;13.18;;;;;;;19.57;100.00;100289.75;6348414;27;20043;-86
2023/09/12 01:39:04;;;;;;;18.48;13.60;;;;;;;19.52;100.00;100292.91;6327792;28;20160;-86
2023/09/12 01:42:10;;;;;;;19.10;14.00;;;;;;;19.53;100.00;100291.13;6334716;28;20044;-86
2023/09/12 01:45:16;;;;;;;26.20;15.30;;;;;;;19.52;100.00;100303.44;6305233;28;20506;-86
2023/09/12 01:48:30;;;;;;;18.45;14.95;;;;;;;19.54;100.00;100311.13;6332021;27;20040;-87
2023/09/12 01:51:33;;;;;;;19.42;14.63;;;;;;;19.52;100.00;100308.69;6329608;28;20051;-86
2023/09/12 01:54:36;;;;;;;22.27;16.15;;;;;;;19.53;100.00;100318.19;6325728;28;20051;-86
2023/09/12 01:57:40;;;;;;;19.88;15.40;;;;;;;19.55;100.00;100313.59;6324390;28;20122;-86
2023/09/12 02:00:41;;;;;;;18.73;14.70;;;;;;;19.56;100.00;100323.06;6322813;28;20047;-86
2023/09/12 02:03:43;;;;;;;21.50;15.90;;;;;;;19.55;100.00;100324.09;6341309;28;20043;-86
2023/09/12 02:06:45;;;;;;;20.67;15.77;;;;;;;19.56;100.00;100330.16;6332865;28;20199;-86
2023/09/12 02:09:50;;;;;;;18.25;15.30;;;;;;;19.54;100.00;100326.88;6327450;27;20190;-86
2023/09/12 02:12:52;;;;;;;18.27;15.20;;;;;;;19.52;100.00;100340.19;6327223;28;20063;-87
2023/09/12 02:16:01;;;;;;;22.15;15.43;;;;;;;19.52;100.00;100340.19;6326393;28;20489;-86
2023/09/12 02:19:03;;;;;;;20.70;16.03;;;;;;;19.51;100.00;100349.06;6334548;28;20097;-86
2023/09/12 02:22:05;;;;;;;19.92;15.45;;;;;;;19.49;100.00;100347.63;6335751;28;20433;-86
2023/09/12 02:25:08;;;;;;;21.42;16.23;;;;;;;19.52;100.00;100348.06;6322424;28;20044;-86
2023/09/12 02:28:10;;;;;;;20.80;16.40;;;;;;;19.57;100.00;100358.81;6322962;28;20164;-86
2023/09/12 02:31:12;;;;;;;21.60;15.57;;;;;;;19.73;100.00;100383.28;6330893;28;20034;-86
2023/09/12 02:34:13;;;;;;;21.98;16.73;;;;;;;19.88;100.00;100389.31;6328629;28;20611;-85
2023/09/12 02:37:15;;;;;;;23.85;16.20;;;;;;;19.97;100.00;100385.59;6333873;28;20047;-86
2023/09/12 02:40:19;;;;;;;23.67;16.15;;;;;;;19.96;100.00;100386.56;6335485;28;20051;-86
2023/09/12 02:43:20;;;;;;;19.70;15.95;;;;;;;19.96;100.00;100373.44;6328078;28;20485;-86
2023/09/12 02:46:23;;;;;;;23.25;16.48;;;;;;;19.86;100.00;100386.06;6324427;28;20044;-86
2023/09/12 02:49:25;;;;;;;23.55;16.73;;;;;;;19.78;100.00;100375.69;6330113;28;20192;-86
2023/09/12 02:52:27;;;;;;;21.45;17.13;;;;;;;19.68;100.00;100378.59;6331281;28;20042;-86
2023/09/12 02:55:29;;;;;;;22.30;16.55;;;;;;;19.66;100.00;100374.50;6330420;28;20043;-87
2023/09/12 02:58:31;;;;;;;23.90;17.13;;;;;;;19.70;100.00;100378.38;6329996;28;20047;-86
2023/09/12 03:01:33;;;;;;;21.30;17.17;;;;;;;19.68;100.00;100370.72;6331508;28;20039;-87
2023/09/12 03:04:36;;;;;;;23.70;16.10;;;;;;;19.69;100.00;100364.44;6333968;28;20036;-86
2023/09/12 03:07:38;;;;;;;24.30;16.80;;;;;;;19.72;100.00;100344.88;6322536;28;20128;-86
2023/09/12 03:10:40;;;;;;;23.15;17.33;;;;;;;19.68;100.00;100336.56;6325263;28;20032;-87
2023/09/12 03:13:42;;;;;;;20.45;16.85;;;;;;;19.63;100.00;100346.78;6322097;28;20122;-86
2023/09/12 03:16:44;;;;;;;19.15;16.45;;;;;;;19.59;100.00;100353.41;6326051;28;20158;-86
2023/09/12 03:19:46;;;;;;;23.13;16.33;;;;;;;19.59;100.00;100358.66;6330751;27;20044;-86
2023/09/12 03:22:48;;;;;;;24.67;17.73;;;;;;;19.56;100.00;100359.03;6326660;28;20044;-87
2023/09/12 03:25:50;;;;;;;28.10;17.80;;;;;;;19.64;100.00;100369.41;6327414;28;20032;-86
2023/09/12 03:28:52;;;;;;;22.70;18.10;;;;;;;19.68;100.00;100369.91;6334349;28;20400;-86
2023/09/12 03:31:54;;;;;;;20.30;17.02;;;;;;;19.67;100.00;100381.38;6330298;28;20465;-86
2023/09/12 03:34:56;;;;;;;27.05;17.63;;;;;;;19.69;100.00;100388.09;6308401;28;20139;-86
2023/09/12 03:37:58;;;;;;;24.08;18.10;;;;;;;19.76;100.00;100417.06;6321307;28;20516;-86
2023/09/12 03:41:01;;;;;;;26.23;19.20;;;;;;;19.88;100.00;100441.06;6327914;28;20051;-86
2023/09/12 03:44:04;;;;;;;20.05;17.10;;;;;;;20.05;100.00;100441.63;6329015;28;20043;-86
2023/09/12 03:47:06;;;;;;;22.73;17.13;;;;;;;20.09;100.00;100435.00;6331479;28;20056;-86
2023/09/12 03:50:09;;;;;;;22.88;16.67;;;;;;;20.02;100.00;100434.94;6326602;28;20416;-86
2023/09/12 03:53:11;;;;;;;20.52;17.00;;;;;;;20.02;100.00;100427.06;6331013;28;20035;-86
2023/09/12 03:56:14;;;;;;;20.58;17.75;;;;;;;19.97;100.00;100439.94;6321887;28;20132;-86
2023/09/12 03:59:16;;;;;;;21.90;17.85;;;;;;;19.95;100.00;100445.38;6329243;28;20058;-86
2023/09/12 04:02:18;;;;;;;20.92;17.02;;;;;;;20.01;100.00;100463.03;6311777;28;20138;-86
2023/09/12 04:05:20;;;;;;;22.55;17.50;;;;;;;19.95;100.00;100413.03;6328164;28;20549;-86
2023/09/12 04:08:22;;;;;;;21.75;17.83;;;;;;;19.87;100.00;100371.91;6326739;28;20043;-85
2023/09/12 04:11:24;;;;;;;21.60;18.73;;;;;;;19.96;100.00;100360.31;6327202;28;20047;-86
2023/09/12 04:14:49;;;;;;;19.67;14.80;;;;;;;19.95;100.00;100369.19;6331463;28;20044;-86
2023/09/12 04:17:51;;;;;;;15.48;12.45;;;;;;;19.95;100.00;100358.69;6344467;27;20039;-86
2023/09/12 04:20:55;;;;;;;13.27;11.32;;;;;;;19.89;100.00;100359.41;6327301;28;20032;-87
2023/09/12 04:23:57;;;;;;;16.90;12.27;;;;;;;20.02;100.00;100350.84;6306568;28;20489;-86
2023/09/12 04:26:59;;;;;;;17.08;12.90;;;;;;;19.99;100.00;100357.28;6322550;28;20088;-87
2023/09/12 04:30:02;;;;;;;17.05;11.60;;;;;;;19.93;100.00;100344.09;6335461;28;20043;-86
2023/09/12 04:33:04;;;;;;;12.23;9.90;;;;;;;19.87;100.00;100350.91;6327081;28;20177;-86
2023/09/12 04:36:06;;;;;;;11.05;8.70;;;;;;;19.83;100.00;100335.72;6325976;28;20043;-86
2023/09/12 04:39:08;;;;;;;12.23;8.75;;;;;;;19.75;100.00;100344.50;6324706;28;20501;-87
2023/09/12 04:42:10;;;;;;;12.77;9.93;;;;;;;19.74;100.00;100342.88;6321952;28;20110;-87
2023/09/12 04:45:12;;;;;;;12.52;9.00;;;;;;;19.73;100.00;100343.91;6315204;28;20048;-86
2023/09/12 04:48:14;;;;;;;12.80;9.35;;;;;;;19.69;100.00;100359.19;6325297;28;20067;-87
2023/09/12 04:51:17;;;;;;;12.23;9.02;;;;;;;19.68;100.00;100344.44;6318532;28;20077;-86
2023/09/12 04:54:19;;;;;;;13.15;9.80;;;;;;;19.69;100.00;100345.25;6333527;28;20051;-86
2023/09/12 04:57:21;;;;;;;13.57;9.45;;;;;;;19.65;100.00;100336.09;6329840;28;20489;-86
2023/09/12 05:00:23;;;;;;;14.02;10.38;;;;;;;19.65;100.00;100323.78;6322262;28;20036;-86
2023/09/12 05:03:25;;;;;;;14.02;10.90;;;;;;;19.65;100.00;100336.91;6322066;28;20517;-86
2023/09/12 05:06:29;;;;;;;14.25;10.35;;;;;;;19.68;100.00;100339.19;6337675;28;20393;-86
2023/09/12 05:09:30;;;;;;;13.65;10.13;;;;;;;19.75;100.00;100368.97;6332784;28;20059;-87
2023/09/12 05:12:33;;;;;;;11.70;9.82;;;;;;;19.71;100.00;100369.53;6323027;28;20557;-86
2023/09/12 05:15:36;;;;;;;14.93;10.13;;;;;;;19.81;100.00;100388.44;6336202;28;20497;-86
2023/09/12 05:18:39;;;;;;;16.25;11.65;;;;;;;19.86;100.00;100404.44;6335877;28;20040;-86
2023/09/12 05:21:41;;;;;;;17.00;14.35;;;;;;;19.89;100.00;100411.97;6326944;28;20047;-86
2023/09/12 05:24:43;;;;;;;19.13;16.08;;;;;;;19.86;100.00;100407.09;6328185;28;20531;-87
2023/09/12 05:27:46;;;;;;;17.15;14.75;;;;;;;19.85;100.00;100413.34;6321061;28;20659;-86
2023/09/12 05:30:48;;;;;;;19.00;13.73;;;;;;;19.85;100.00;100420.38;6329071;28;20497;-86
2023/09/12 05:33:50;;;;;;;20.63;14.93;;;;;;;19.81;100.00;100413.91;6328175;28;20498;-88
2023/09/12 05:36:53;;;;;;;20.27;15.15;;;;;;;19.63;100.00;100430.00;6323261;28;20039;-88
2023/09/12 05:39:55;;;;;;;20.38;14.52;;;;;;;19.49;100.00;100450.03;6327393;28;20047;-87
2023/09/12 05:42:57;;;;;;;19.90;15.05;;;;;;;19.42;100.00;100465.66;6336764;28;20157;-87
2023/09/12 05:45:59;;;;;;;18.85;15.18;;;;;;;19.34;100.00;100447.38;6329220;27;20055;-87
2023/09/12 05:49:01;;;;;;;20.52;16.38;;;;;;;19.27;100.00;100451.72;6323889;28;20070;-87
2023/09/12 05:52:04;;;;;;;22.23;16.05;;;;;;;19.31;100.00;100439.88;6325194;28;20125;-89
2023/09/12 05:55:06;;;;;;;26.42;18.90;;;;;;;19.25;100.00;100449.28;6330019;28;20461;-90
2023/09/12 05:58:09;;;;;;;41.13;19.00;;;;;;;19.01;100.00;100487.06;6324684;28;20040;-86
2023/09/12 06:01:11;;;;;;;23.58;15.75;;;;;;;18.80;100.00;100500.03;6329406;27;20470;-86
2023/09/12 06:04:12;;;;;;;40.28;18.42;;;;;;;18.79;100.00;100517.56;6326464;28;20127;-87
2023/09/12 06:07:15;;;;;;;26.45;16.70;;;;;;;18.87;100.00;100511.44;6324298;28;20039;-88
2023/09/12 06:10:17;;;;;;;17.52;11.90;;;;;;;18.83;100.00;100508.38;6321573;28;20051;-88
2023/09/12 06:13:19;;;;;;;19.63;11.48;;;;;;;18.81;100.00;100510.34;6331944;28;20509;-88
2023/09/12 06:16:21;;;;;;;19.95;12.30;;;;;;;18.76;100.00;100501.34;6337362;28;20036;-90
2023/09/12 06:19:24;;;;;;;23.88;16.92;;;;;;;18.70;100.00;100487.91;6331340;28;20118;-91
2023/09/12 06:22:26;;;;;;;27.73;18.67;;;;;;;18.69;100.00;100465.31;6336406;28;20361;-90
2023/09/12 06:25:31;;;;;;;23.70;15.55;;;;;;;18.74;100.00;100459.56;6331041;28;20501;-90
2023/09/12 06:28:33;;;;;;;17.05;11.98;;;;;;;18.63;100.00;100465.19;6322425;28;20805;-90
2023/09/12 06:31:35;;;;;;;11.85;9.82;;;;;;;18.58;100.00;100475.41;6331691;28;20055;-90
2023/09/12 06:34:37;;;;;;;12.88;8.30;;;;;;;18.45;100.00;100468.94;6332074;28;20035;-90
2023/09/12 06:37:40;;;;;;;13.18;8.23;;;;;;;18.42;100.00;100453.56;6331529;27;20039;-91
2023/09/12 06:40:43;;;;;;;12.60;8.40;;;;;;;18.45;100.00;100471.56;6329662;28;20035;-91
2023/09/12 06:43:45;;;;;;;14.93;9.55;;;;;;;18.45;100.00;100462.88;6328794;28;20039;-90
2023/09/12 06:46:47;;;;;;;12.45;9.27;;;;;;;18.48;100.00;100475.63;6337752;28;20070;-89
2023/09/12 06:49:49;;;;;;;14.93;10.02;;;;;;;18.49;100.00;100456.31;6326043;28;20040;-89
2023/09/12 06:52:56;;;;;;;16.67;11.07;;;;;;;18.52;100.00;100434.97;6327885;28;20125;-88
2023/09/12 06:55:58;;;;;;;20.30;12.13;;;;;;;18.62;100.00;100416.38;6324092;28;20100;-88
2023/09/12 06:59:00;;;;;;;23.13;15.05;;;;;;;18.77;100.00;100416.47;6321790;28;20048;-89
2023/09/12 07:02:02;;;;;;;24.70;15.52;;;;;;;18.90;100.00;100408.78;6329243;28;20637;-88
2023/09/12 07:05:05;;;;;;;25.10;17.92;;;;;;;19.07;100.00;100412.88;6325438;28;20048;-89
2023/09/12 07:08:08;;;;;;;24.23;17.35;;;;;;;19.20;100.00;100417.50;6326068;28;20047;-90
2023/09/12 07:11:10;;;;;;;24.85;19.85;;;;;;;19.27;100.00;100412.34;6329291;28;20541;-89
2023/09/12 07:14:12;;;;;;;26.17;18.85;;;;;;;19.30;100.00;100404.13;6326853;28;20040;-90
2023/09/12 07:17:14;;;;;;;32.22;19.90;;;;;;;19.33;100.00;100401.16;6322806;28;20027;-89
2023/09/12 07:20:17;;;;;;;27.88;20.58;;;;;;;19.30;100.00;100383.97;6324933;28;20036;-90
2023/09/12 07:23:20;;;;;;;27.60;21.15;;;;;;;19.43;100.00;100396.44;6324289;28;20058;-90
2023/09/12 07:26:22;;;;;;;33.00;23.02;;;;;;;19.59;100.00;100393.59;6326135;28;20042;-90
2023/09/12 07:29:28;;;;;;;30.60;21.70;;;;;;;19.75;100.00;100403.13;6329742;28;20191;-90
2023/09/12 07:32:30;;;;;;;30.98;22.50;;;;;;;19.83;100.00;100414.53;6329983;28;20388;-90
2023/09/12 07:35:32;;;;;;;28.77;22.58;;;;;;;19.90;100.00;100437.25;6314293;28;20888;-91
2023/09/12 07:38:35;;;;;;;31.92;23.38;;;;;;;19.99;100.00;100462.41;6329733;28;20048;-91
2023/09/12 07:41:37;;;;;;;33.20;24.23;;;;;;;20.07;100.00;100473.81;6324204;28;20413;-90
2023/09/12 07:44:40;;;;;;;30.50;23.10;;;;;;;20.18;100.00;100465.44;6328038;28;20071;-90
2023/09/12 07:47:42;;;;;;;28.83;22.50;;;;;;;20.33;100.00;100450.44;6326516;28;20416;-90
2023/09/12 07:50:45;;;;;;;30.85;22.30;;;;;;;20.62;100.00;100446.91;6331372;28;20047;-90
2023/09/12 07:53:47;;;;;;;28.50;21.88;;;;;;;20.92;100.00;100432.75;6329662;28;20142;-90
2023/09/12 07:56:49;;;;;;;29.25;22.38;;;;;;;21.16;100.00;100442.84;6321771;28;20518;-90
2023/09/12 07:59:51;;;;;;;28.40;21.20;;;;;;;21.28;100.00;100451.03;6332624;28;20044;-90
2023/09/12 08:02:53;;;;;;;27.25;21.25;;;;;;;21.21;100.00;100482.56;6333334;28;20540;-90
2023/09/12 08:05:57;;;;;;;24.80;19.70;;;;;;;21.14;100.00;100507.22;6332477;28;20126;-91
2023/09/12 08:09:00;;;;;;;29.15;19.38;;;;;;;21.01;100.00;100542.16;6333896;28;20127;-90
2023/09/12 08:12:03;;;;;;;25.48;19.52;;;;;;;21.07;100.00;100551.94;6336923;28;20040;-91
2023/09/12 08:15:05;;;;;;;24.15;19.33;;;;;;;21.13;100.00;100576.69;6333882;28;20039;-91
2023/09/12 08:18:07;;;;;;;25.02;18.23;;;;;;;20.97;100.00;100585.66;6336935;28;20046;-90
2023/09/12 08:21:10;;;;;;;25.17;18.92;;;;;;;20.81;100.00;100590.13;6337384;28;20039;-91
2023/09/12 08:24:12;;;;;;;21.40;15.35;;;;;;;20.92;100.00;100583.59;6335337;28;20084;-91
2023/09/12 08:27:16;;;;;;;23.23;16.65;;;;;;;21.06;100.00;100582.69;6332663;28;20040;-92
2023/09/12 08:30:18;;;;;;;22.45;16.55;;;;;;;21.18;100.00;100590.91;6333842;28;20030;-92
2023/09/12 08:33:20;;;;;;;21.48;14.43;;;;;;;21.08;100.00;100559.63;6329180;28;20050;-93
2023/09/12 08:36:26;;;;;;;18.60;14.50;;;;;;;21.06;100.00;100535.31;6331013;28;20040;-93
2023/09/12 08:39:41;;;;;;;19.08;13.27;;;;;;;20.91;100.00;100542.47;6336948;28;20047;-94
2023/09/12 08:42:45;;;;;;;15.85;11.48;;;;;;;20.81;100.00;100539.34;6320825;28;20052;-93
2023/09/12 08:45:47;;;;;;;14.90;10.90;;;;;;;20.77;100.00;100553.84;6328377;28;20047;-94
2023/09/12 08:48:50;;;;;;;12.98;9.80;;;;;;;20.65;100.00;100537.78;6326916;28;20043;-93
2023/09/12 08:51:52;;;;;;;7.80;7.00;;;;;;;20.62;100.00;100544.22;6321823;28;20054;-96
2023/09/12 08:54:55;;;;;;;7.72;5.28;;;;;;;20.70;100.00;100537.22;6313929;28;20420;-96
2023/09/12 08:57:58;;;;;;;5.85;5.03;;;;;;;20.78;100.00;100542.34;6326105;28;20127;-96
2023/09/12 09:01:00;;;;;;;5.85;5.25;;;;;;;20.78;100.00;100545.78;6336390;28;20047;-96
2023/09/12 09:04:03;;;;;;;6.03;4.90;;;;;;;20.57;100.00;100551.03;6326323;28;20035;-95
2023/09/12 09:07:06;;;;;;;5.28;3.85;;;;;;;20.40;100.00;100559.13;6325904;28;20047;-95
2023/09/12 09:10:15;;;;;;;4.93;4.45;;;;;;;20.36;100.00;100570.19;6326325;28;20089;-96
2023/09/12 09:13:20;;;;;;;7.10;5.05;;;;;;;20.14;100.00;100564.88;6332491;28;20044;-96
2023/09/12 09:16:23;;;;;;;6.25;4.45;;;;;;;19.93;100.00;100564.81;6346002;28;20070;-96
2023/09/12 09:19:41;;;;;;;5.60;4.53;;;;;;;19.75;100.00;100573.84;6357604;28;20044;-96
2023/09/12 09:22:57;;;;;;;7.10;4.95;;;;;;;19.65;100.00;100635.47;6344759;28;20130;-96
2023/09/12 09:25:59;;;;;;;5.28;4.78;;;;;;;19.51;100.00;100611.63;6329529;28;20062;-96
2023/09/12 09:29:20;;;;;;;8.45;6.15;;;;;;;19.34;100.00;100587.31;6348589;28;20029;-96
2023/09/12 09:32:23;;;;;;;9.52;5.65;;;;;;;19.06;100.00;100613.28;6332217;28;20047;-96
2023/09/12 09:35:25;;;;;;;7.97;5.97;;;;;;;18.91;100.00;100591.44;6326817;28;20039;-96
2023/09/12 09:38:27;;;;;;;9.00;6.35;;;;;;;18.77;100.00;100606.09;6322291;28;20036;-92
2023/09/12 09:41:29;;;;;;;13.60;8.75;;;;;;;18.72;100.00;100616.25;6315599;28;20181;-95
2023/09/12 09:44:32;;;;;;;9.55;6.63;;;;;;;18.61;100.00;100606.97;6327967;28;20690;-96
2023/09/12 09:47:34;;;;;;;8.48;6.95;;;;;;;18.61;100.00;100627.94;6331264;28;20036;-96
2023/09/12 09:50:37;;;;;;;9.07;6.78;;;;;;;18.60;100.00;100633.34;6342639;28;20047;-95
2023/09/12 09:53:40;;;;;;;9.98;6.80;;;;;;;18.51;100.00;100617.66;6342213;28;20045;-96
2023/09/12 09:56:49;;;;;;;8.73;7.05;;;;;;;18.49;100.00;100634.56;6355707;27;20039;-96
2023/09/12 09:59:51;;;;;;;9.70;7.97;;;;;;;18.44;100.00;100618.53;6341742;28;20555;-96
2023/09/12 10:02:55;;;;;;;9.82;7.72;;;;;;;18.42;100.00;100633.59;6322950;28;20236;-95
2023/09/12 10:06:03;;;;;;;10.60;7.13;;;;;;;18.37;100.00;100618.38;6324859;27;20047;-95
2023/09/12 10:09:10;;;;;;;11.88;8.10;;;;;;;18.49;100.00;100610.97;6334859;28;20039;-95
2023/09/12 10:12:13;;;;;;;11.35;7.80;;;;;;;18.71;100.00;100623.31;6351879;28;20039;-96
2023/09/12 10:15:17;;;;;;;14.10;8.68;;;;;;;18.98;100.00;100602.88;6357596;28;20095;-96
2023/09/12 10:18:21;;;;;;;10.05;8.27;;;;;;;19.01;100.00;100606.94;6333115;28;20040;-96
2023/09/12 10:21:34;;;;;;;10.35;8.25;;;;;;;18.85;100.00;100595.53;6345831;28;20039;-96
2023/09/12 10:24:40;;;;;;;13.43;8.68;;;;;;;18.78;100.00;100599.88;6362904;28;20035;-94
2023/09/12 10:27:42;;;;;;;13.75;9.75;;;;;;;18.70;100.00;100589.38;6333331;28;20048;-94
2023/09/12 10:30:45;;;;;;;13.40;9.07;;;;;;;18.74;100.00;100593.28;6328066;28;20040;-96
2023/09/12 10:33:49;;;;;;;11.10;8.40;;;;;;;18.84;100.00;100586.06;6328532;28;20111;-92
2023/09/12 10:36:52;;;;;;;11.85;8.93;;;;;;;18.89;100.00;100577.66;6339915;28;20032;-95
2023/09/12 10:39:56;;;;;;;10.15;7.90;;;;;;;18.85;100.00;100594.72;6325638;28;20057;-95
2023/09/12 10:43:00;;;;;;;11.50;8.07;;;;;;;18.92;100.00;100611.41;6336509;28;20040;-95
2023/09/12 10:46:03;;;;;;;12.25;8.75;;;;;;;18.92;100.00;100590.44;6337282;27;20047;-95
2023/09/12 10:49:14;;;;;;;13.07;8.35;;;;;;;19.09;100.00;100591.94;6340354;28;20039;-96
2023/09/12 10:52:29;;;;;;;11.15;8.63;;;;;;;19.18;100.00;100597.97;6346393;28;20032;-96
2023/09/12 10:55:31;;;;;;;9.73;8.38;;;;;;;19.17;100.00;100608.63;6366917;28;20035;-96
2023/09/12 10:58:53;;;;;;;11.60;8.73;;;;;;;19.06;100.00;100588.88;6361809;28;20039;-96
2023/09/12 11:01:55;;;;;;;11.00;9.02;;;;;;;19.12;100.00;100575.84;6379755;28;20091;-96
2023/09/12 11:05:04;;;;;;;11.90;9.48;;;;;;;19.25;100.00;100601.50;6364820;28;20032;-96
2023/09/12 11:33:32;;;;;;;15.70;8.95;;;;;;;18.79;100.00;100653.94;5458055;23;20509;-94
2023/09/12 11:36:41;;;;;;;12.43;9.45;;;;;;;18.72;100.00;100650.34;6022746;29;20053;-92
2023/09/12 11:39:43;;;;;;;20.58;10.50;;;;;;;18.62;100.00;100650.53;6013578;29;20159;-91
2023/09/12 11:42:47;;;;;;;15.52;10.18;;;;;;;18.64;100.00;100692.34;6019494;29;20181;-92
2023/09/12 11:45:51;;;;;;;11.05;8.65;;;;;;;18.68;100.00;100678.72;6021778;29;20044;-92
2023/09/12 11:48:53;;;;;;;15.10;10.05;;;;;;;18.60;100.00;100656.94;6010770;29;20041;-89
2023/09/12 11:51:55;;;;;;;30.75;10.80;;;;;;;18.53;100.00;100638.44;6022585;29;20045;-89
2023/09/12 11:54:57;;;;;;;18.70;10.57;;;;;;;18.52;100.00;100606.19;6022686;29;20048;-89
2023/09/12 11:58:00;;;;;;;16.98;9.25;;;;;;;18.58;100.00;100588.94;6023753;29;20077;-90
2023/09/12 12:01:03;;;;;;;21.55;11.10;;;;;;;18.57;100.00;100557.66;6025376;29;20137;-91
2023/09/12 12:04:06;;;;;;;12.25;9.65;;;;;;;18.60;100.00;100563.38;6024276;29;20153;-90
2023/09/12 12:07:10;;;;;;;14.23;9.70;;;;;;;18.51;100.00;100567.06;6022898;29;20042;-92
2023/09/12 12:10:13;;;;;;;15.30;10.32;;;;;;;18.51;100.00;100561.81;6022973;29;20037;-92
2023/09/12 12:13:22;;;;;;;13.00;9.65;;;;;;;18.60;100.00;100550.25;6024655;29;20097;-91
2023/09/12 12:16:26;;;;;;;28.27;11.30;;;;;;;18.75;100.00;100533.78;6023557;29;20049;-92
2023/09/12 12:19:28;;;;;;;15.00;10.77;;;;;;;18.89;100.00;100539.13;6022681;29;20075;-92
2023/09/12 12:22:30;;;;;;;16.02;10.38;;;;;;;18.90;100.00;100546.00;6021814;29;20141;-93
2023/09/12 12:25:35;;;;;;;13.85;10.13;;;;;;;18.88;100.00;100542.75;6012873;29;20100;-93
2023/09/12 12:28:38;;;;;;;14.30;10.45;;;;;;;18.90;100.00;100530.25;6003174;29;20544;-94
2023/09/12 12:31:40;;;;;;;13.45;10.52;;;;;;;18.85;100.00;100531.78;6022875;29;20050;-94
2023/09/12 12:34:48;;;;;;;11.52;8.68;;;;;;;18.82;100.00;100519.84;6007179;29;20738;-94
2023/09/12 12:38:12;;;;;;;12.13;8.38;;;;;;;18.88;100.00;100534.03;6017670;29;20049;-94
2023/09/12 12:41:26;;;;;;;11.18;8.55;;;;;;;18.97;100.00;100538.25;6016497;29;20050;-95
2023/09/12 12:44:40;;;;;;;13.55;8.73;;;;;;;19.07;100.00;100536.19;6022671;29;20228;-94
2023/09/12 12:47:42;;;;;;;12.65;9.00;;;;;;;19.24;100.00;100538.69;6018317;29;20037;-94
2023/09/12 12:50:44;;;;;;;11.45;8.30;;;;;;;19.43;100.00;100539.97;6018259;29;20493;-94
2023/09/12 12:53:49;;;;;;;12.18;9.15;;;;;;;19.62;100.00;100546.53;6021838;29;20082;-94
2023/09/12 12:56:55;;;;;;;13.68;9.88;;;;;;;19.78;100.00;100536.72;6021095;29;20375;-94
2023/09/12 12:59:58;;;;;;;11.82;9.27;;;;;;;20.01;100.00;100536.59;6015284;29;20565;-95
2023/09/12 13:03:00;;;;;;;11.18;9.35;;;;;;;20.20;100.00;100527.34;6021960;29;20053;-94
2023/09/12 13:06:02;;;;;;;13.88;10.35;;;;;;;20.54;100.00;100538.22;6020483;29;20054;-94
2023/09/12 13:09:05;;;;;;;9.80;8.70;;;;;;;20.82;100.00;100547.06;6016208;29;20049;-94
2023/09/12 13:12:08;;;;;;;10.57;8.00;;;;;;;21.10;100.00;100534.94;6019602;29;20423;-94
2023/09/12 13:15:10;;;;;;;10.73;7.35;;;;;;;21.29;100.00;100526.38;6023777;29;20048;-94
2023/09/12 13:18:13;;;;;;;11.38;8.07;;;;;;;21.46;100.00;100516.41;6022074;29;20045;-93
2023/09/12 13:21:15;;;;;;;10.52;7.40;;;;;;;21.71;100.00;100501.78;6020937;29;20505;-93
2023/09/12 13:24:18;;;;;;;6.60;6.00;;;;;;;21.98;100.00;100498.44;6023642;29;20057;-94
2023/09/12 13:27:20;;;;;;;7.60;6.00;;;;;;;22.19;100.00;100485.13;6026333;29;20046;-95
2023/09/12 13:30:22;;;;;;;5.97;5.28;;;;;;;22.33;100.00;100478.09;6025670;29;20042;-94
2023/09/12 13:33:24;;;;;;;5.72;5.03;;;;;;;22.49;100.00;100458.44;6025726;29;20049;-95
2023/09/12 13:36:26;;;;;;;7.53;5.57;;;;;;;22.64;100.00;100450.34;6028737;29;20038;-95
2023/09/12 13:39:29;;;;;;;5.78;4.25;;;;;;;22.84;100.00;100445.88;6017462;29;20045;-96
2023/09/12 13:42:31;;;;;;;6.30;4.75;;;;;;;22.85;100.00;100415.81;6023333;29;20124;-94
2023/09/12 13:45:34;;;;;;;5.55;4.10;;;;;;;22.95;100.00;100416.19;6035543;29;20548;-94
2023/09/12 13:48:36;;;;;;;5.47;4.40;;;;;;;22.96;100.00;100409.91;6027685;29;20049;-95
2023/09/12 13:51:38;;;;;;;5.20;4.53;;;;;;;23.10;100.00;100415.19;6025912;29;20048;-96
2023/09/12 13:54:40;;;;;;;6.53;4.97;;;;;;;23.27;100.00;100413.75;6025230;29;20033;-96
2023/09/12 13:57:42;;;;;;;5.57;5.00;;;;;;;23.43;100.00;100410.66;6037763;29;20042;-96
2023/09/12 14:00:53;;;;;;;7.60;5.60;;;;;;;23.67;100.00;100408.31;6052178;29;20098;-96
2023/09/12 15:09:39;;;;;;;2.75;2.40;;;;;;;23.71;100.00;100372.50;5719580;24;20048;-93
2023/09/12 15:12:41;;;;;;;3.15;2.83;;;;;;;23.61;100.00;100369.53;5841609;30;20492;-92
2023/09/12 15:15:42;;;;;;;3.47;2.90;;;;;;;23.61;100.00;100362.41;5841813;30;20057;-92
2023/09/12 15:18:45;;;;;;;5.25;3.10;;;;;;;23.63;100.00;100359.56;5854897;30;20052;-92